Terminal Aerodrome Forecast
Issued by NWS Milwaukee/Sullivan, WI

Home | Current Version | Previous Version | Text Only | Print | Product List | Glossary On
Versions: 1 2 3 4 5 6 7 8 9 10 11 12 13 14 15 16 17 18 19 20 21 22 23 24 25 26 27 28 29 30 31 32 33 34 35 36 37 38 39 40 41
000
FTUS43 KMKX 300520
TAFMKE
TAF
KMKE 300520Z 3006/3112 04013G20KT P6SM -RA SCT025 OVC035
     FM300800 08015G25KT 5SM RA BR SCT015 OVC025
     FM301100 08018G26KT 3SM RA BR SCT008 OVC015
     FM301300 08019G27KT 3SM RA BR OVC008
     FM301500 08020G32KT 1 1/2SM RA BR OVC003
     FM310000 05014G23KT 1SM -RA BR OVC003
     FM310900 02014KT 3SM -RA BR OVC003=

USA.gov is the U.S. government's official web portal to all federal, state and local government web resources and services.